BVX666 CYEV-CYYC
Flight info
| Callsign | BVX666 |
|---|---|
| Flight time | 2h 46m |
| Altitude | 17000 |
| Route | VQ L767 VOGOK/N0461F370 DCT AMUNO ADVOX9 |
| Aircraft | B738/M-SDE2E3FGHIRWXY/LB1 |
Departure
| Time | 2026-04-27 01:37 |
|---|---|
| Airport | Inuvik Mike Zubko Airport (CYEV) |
Arrival
| Time | 2026-04-27 04:24 |
|---|---|
| Airport | Calgary International Airport (CYYC) |
| Time | Latitude | Longitude | Altitude | Speed | Heading |
|---|---|---|---|---|---|
| 2026-04-27 01:18 | 68.30581 | -133.49434 | 207 ft | 0 kts | 87° |
| 2026-04-27 01:33 | 68.30579 | -133.49396 | 208 ft | 6 kts | 103° |
| 2026-04-27 01:33 | 68.30531 | -133.49223 | 212 ft | 16 kts | 111° |
| 2026-04-27 01:34 | 68.30534 | -133.48952 | 215 ft | 12 kts | 76° |
| 2026-04-27 01:34 | 68.30505 | -133.48822 | 218 ft | 9 kts | 168° |
| 2026-04-27 01:34 | 68.30425 | -133.48806 | 216 ft | 14 kts | 175° |
| 2026-04-27 01:34 | 68.30366 | -133.48683 | 216 ft | 12 kts | 97° |
| 2026-04-27 01:35 | 68.30373 | -133.48382 | 220 ft | 22 kts | 86° |
| 2026-04-27 01:35 | 68.30386 | -133.47897 | 213 ft | 30 kts | 85° |
| 2026-04-27 01:35 | 68.30402 | -133.47293 | 222 ft | 35 kts | 86° |
| 2026-04-27 01:35 | 68.30421 | -133.46604 | 224 ft | 35 kts | 86° |
| 2026-04-27 01:36 | 68.30443 | -133.46220 | 224 ft | 12 kts | 67° |
| 2026-04-27 01:36 | 68.30437 | -133.46147 | 225 ft | 2 kts | 199° |
| 2026-04-27 01:36 | 68.30430 | -133.46208 | 228 ft | 0 kts | 266° |
| 2026-04-27 01:37 | 68.30430 | -133.46255 | 226 ft | 15 kts | 267° |
| 2026-04-27 01:37 | 68.30401 | -133.47333 | 221 ft | 99 kts | 266° |
| 2026-04-27 01:37 | 68.30334 | -133.49898 | 236 ft | 168 kts | 268° |
| 2026-04-27 01:37 | 68.30218 | -133.53190 | 921 ft | 183 kts | 265° |
| 2026-04-27 01:38 | 68.30043 | -133.56502 | 2088 ft | 182 kts | 252° |
| 2026-04-27 01:38 | 68.29237 | -133.59260 | 2575 ft | 203 kts | 206° |
| 2026-04-27 01:38 | 68.27802 | -133.59807 | 2813 ft | 222 kts | 163° |
| 2026-04-27 01:38 | 68.26532 | -133.57481 | 3191 ft | 234 kts | 124° |
| 2026-04-27 01:39 | 68.25762 | -133.53374 | 3608 ft | 252 kts | 112° |
| 2026-04-27 01:39 | 68.25084 | -133.48980 | 4514 ft | 254 kts | 111° |
| 2026-04-27 01:39 | 68.24397 | -133.44548 | 5386 ft | 258 kts | 113° |
| 2026-04-27 01:39 | 68.23610 | -133.40159 | 6248 ft | 262 kts | 117° |
| 2026-04-27 01:40 | 68.22690 | -133.35862 | 7061 ft | 267 kts | 122° |
| 2026-04-27 01:40 | 68.21660 | -133.31703 | 7777 ft | 273 kts | 125° |
| 2026-04-27 01:40 | 68.20512 | -133.27563 | 8570 ft | 278 kts | 128° |
| 2026-04-27 01:40 | 68.19277 | -133.23483 | 9365 ft | 283 kts | 130° |
| 2026-04-27 01:41 | 68.17972 | -133.19443 | 10127 ft | 288 kts | 132° |
| 2026-04-27 01:41 | 68.16584 | -133.15352 | 10511 ft | 307 kts | 134° |
| 2026-04-27 01:41 | 68.15072 | -133.11058 | 10687 ft | 331 kts | 135° |
| 2026-04-27 01:41 | 68.13409 | -133.06458 | 10877 ft | 354 kts | 135° |
| 2026-04-27 01:42 | 68.11637 | -133.01660 | 11274 ft | 367 kts | 135° |
| 2026-04-27 01:42 | 68.09804 | -132.96773 | 11905 ft | 373 kts | 135° |
| 2026-04-27 01:42 | 68.07971 | -132.91942 | 12625 ft | 376 kts | 136° |
| 2026-04-27 01:42 | 68.06087 | -132.87020 | 13360 ft | 379 kts | 136° |
| 2026-04-27 01:43 | 68.04179 | -132.82063 | 14017 ft | 384 kts | 137° |
| 2026-04-27 01:43 | 68.02247 | -132.77068 | 14632 ft | 388 kts | 137° |
| 2026-04-27 01:43 | 68.00326 | -132.72119 | 15287 ft | 390 kts | 137° |
| 2026-04-27 01:43 | 67.98356 | -132.67059 | 15908 ft | 394 kts | 137° |
| 2026-04-27 01:44 | 67.96364 | -132.61957 | 16514 ft | 397 kts | 137° |
| 2026-04-27 01:44 | 67.94357 | -132.56830 | 17132 ft | 401 kts | 137° |
| 2026-04-27 01:44 | 67.92355 | -132.51728 | 17731 ft | 404 kts | 137° |
| 2026-04-27 01:44 | 67.90309 | -132.46528 | 18315 ft | 408 kts | 137° |
| 2026-04-27 01:45 | 67.88246 | -132.41296 | 18831 ft | 411 kts | 138° |
| 2026-04-27 01:45 | 67.86203 | -132.36131 | 19470 ft | 410 kts | 138° |
| 2026-04-27 01:45 | 67.84133 | -132.30907 | 20019 ft | 412 kts | 138° |
| 2026-04-27 01:45 | 67.82040 | -132.25643 | 20493 ft | 416 kts | 139° |
| 2026-04-27 01:46 | 67.79930 | -132.20346 | 20984 ft | 419 kts | 139° |
| 2026-04-27 01:46 | 67.77806 | -132.15032 | 21484 ft | 421 kts | 139° |
| 2026-04-27 01:46 | 67.75667 | -132.09691 | 21986 ft | 424 kts | 139° |
| 2026-04-27 01:46 | 67.73543 | -132.04403 | 22449 ft | 426 kts | 139° |
| 2026-04-27 01:47 | 67.71381 | -131.99033 | 22911 ft | 429 kts | 139° |
| 2026-04-27 01:47 | 67.69191 | -131.93611 | 23360 ft | 432 kts | 140° |
| 2026-04-27 01:47 | 67.66990 | -131.88175 | 23759 ft | 435 kts | 140° |
| 2026-04-27 01:47 | 67.64776 | -131.82722 | 24131 ft | 437 kts | 140° |
| 2026-04-27 01:48 | 67.62550 | -131.77251 | 24485 ft | 439 kts | 140° |
| 2026-04-27 01:48 | 67.60342 | -131.71843 | 24866 ft | 441 kts | 140° |
| 2026-04-27 01:48 | 67.58089 | -131.66335 | 25216 ft | 443 kts | 140° |
| 2026-04-27 01:48 | 67.55824 | -131.60816 | 25561 ft | 445 kts | 140° |
| 2026-04-27 01:49 | 67.53548 | -131.55284 | 25891 ft | 447 kts | 140° |
| 2026-04-27 01:49 | 67.51258 | -131.49734 | 26222 ft | 449 kts | 140° |
| 2026-04-27 01:49 | 67.48988 | -131.44250 | 26535 ft | 451 kts | 140° |
| 2026-04-27 01:49 | 67.46675 | -131.38673 | 26816 ft | 453 kts | 140° |
| 2026-04-27 01:50 | 67.44337 | -131.33055 | 27053 ft | 456 kts | 141° |
| 2026-04-27 01:50 | 67.42018 | -131.27499 | 27334 ft | 458 kts | 141° |
| 2026-04-27 01:50 | 67.39664 | -131.21870 | 27641 ft | 459 kts | 141° |
| 2026-04-27 01:50 | 67.37311 | -131.16262 | 27950 ft | 459 kts | 141° |
| 2026-04-27 01:51 | 67.34954 | -131.10657 | 28344 ft | 458 kts | 141° |
| 2026-04-27 01:51 | 67.32635 | -131.05158 | 28762 ft | 456 kts | 141° |
| 2026-04-27 01:51 | 67.30294 | -130.99623 | 29161 ft | 455 kts | 141° |
| 2026-04-27 01:51 | 67.27947 | -130.94089 | 29525 ft | 455 kts | 141° |
| 2026-04-27 01:52 | 67.25603 | -130.88580 | 29903 ft | 454 kts | 141° |
| 2026-04-27 01:52 | 67.23293 | -130.83164 | 30272 ft | 453 kts | 142° |
| 2026-04-27 01:52 | 67.20947 | -130.77681 | 30563 ft | 454 kts | 142° |
| 2026-04-27 01:52 | 67.18598 | -130.72205 | 30831 ft | 454 kts | 142° |
| 2026-04-27 01:53 | 67.16242 | -130.66728 | 31128 ft | 455 kts | 142° |
| 2026-04-27 01:53 | 67.13895 | -130.61287 | 31405 ft | 454 kts | 142° |
| 2026-04-27 01:53 | 67.11568 | -130.55907 | 31701 ft | 454 kts | 142° |
| 2026-04-27 01:53 | 67.09212 | -130.50473 | 31992 ft | 455 kts | 142° |
| 2026-04-27 01:54 | 67.06851 | -130.45043 | 32283 ft | 455 kts | 142° |
| 2026-04-27 01:54 | 67.04491 | -130.39631 | 32575 ft | 455 kts | 142° |
| 2026-04-27 01:54 | 67.02159 | -130.34297 | 32862 ft | 455 kts | 142° |
| 2026-04-27 01:54 | 66.99795 | -130.28903 | 33143 ft | 455 kts | 142° |
| 2026-04-27 01:55 | 66.97421 | -130.23503 | 33418 ft | 455 kts | 142° |
| 2026-04-27 01:55 | 66.95055 | -130.18135 | 33700 ft | 455 kts | 142° |
| 2026-04-27 01:55 | 66.92710 | -130.12831 | 33979 ft | 455 kts | 142° |
| 2026-04-27 01:55 | 66.90336 | -130.07472 | 34197 ft | 455 kts | 142° |
| 2026-04-27 01:56 | 66.85603 | -129.96836 | 34607 ft | 455 kts | 142° |
| 2026-04-27 01:56 | 66.83221 | -129.91503 | 34797 ft | 456 kts | 142° |
| 2026-04-27 01:56 | 66.80834 | -129.86176 | 34969 ft | 457 kts | 142° |
| 2026-04-27 01:57 | 66.78443 | -129.80853 | 35143 ft | 458 kts | 142° |
| 2026-04-27 01:57 | 66.76048 | -129.75536 | 35359 ft | 458 kts | 142° |
| 2026-04-27 01:57 | 66.73648 | -129.70220 | 35551 ft | 458 kts | 142° |
| 2026-04-27 01:57 | 66.71245 | -129.64914 | 35718 ft | 459 kts | 142° |
| 2026-04-27 01:58 | 66.68865 | -129.59672 | 35899 ft | 459 kts | 142° |
| 2026-04-27 01:58 | 66.66447 | -129.54359 | 36083 ft | 460 kts | 142° |
| 2026-04-27 01:58 | 66.64031 | -129.49067 | 36248 ft | 460 kts | 142° |
| 2026-04-27 01:58 | 66.61607 | -129.43771 | 36404 ft | 460 kts | 142° |
| 2026-04-27 01:59 | 66.59217 | -129.38561 | 36642 ft | 459 kts | 142° |
| 2026-04-27 01:59 | 66.56798 | -129.33305 | 36790 ft | 460 kts | 142° |
| 2026-04-27 01:59 | 66.54368 | -129.28038 | 36915 ft | 461 kts | 142° |
| 2026-04-27 01:59 | 66.51926 | -129.22761 | 36994 ft | 463 kts | 142° |
| 2026-04-27 02:00 | 66.47023 | -129.12205 | 37001 ft | 463 kts | 143° |
| 2026-04-27 02:00 | 66.42172 | -129.01813 | 37001 ft | 460 kts | 143° |
| 2026-04-27 02:01 | 66.37315 | -128.91465 | 37003 ft | 457 kts | 143° |
| 2026-04-27 02:01 | 66.32512 | -128.81288 | 37005 ft | 455 kts | 143° |
| 2026-04-27 02:02 | 66.27684 | -128.71113 | 37008 ft | 455 kts | 143° |
| 2026-04-27 02:02 | 66.22837 | -128.60952 | 37013 ft | 455 kts | 143° |
| 2026-04-27 02:03 | 66.18009 | -128.50882 | 37015 ft | 457 kts | 143° |
| 2026-04-27 02:03 | 66.13124 | -128.40745 | 36987 ft | 459 kts | 143° |
| 2026-04-27 02:04 | 66.08240 | -128.30661 | 37005 ft | 460 kts | 143° |
| 2026-04-27 02:04 | 66.03315 | -128.20545 | 37011 ft | 461 kts | 143° |
| 2026-04-27 02:05 | 65.98365 | -128.10432 | 37011 ft | 463 kts | 144° |
| 2026-04-27 02:05 | 65.93437 | -128.00416 | 37018 ft | 463 kts | 144° |
| 2026-04-27 02:06 | 65.88452 | -127.90335 | 37005 ft | 464 kts | 144° |
| 2026-04-27 02:06 | 65.83502 | -127.80376 | 37002 ft | 462 kts | 144° |
| 2026-04-27 02:07 | 65.78523 | -127.70412 | 37010 ft | 461 kts | 144° |
| 2026-04-27 02:07 | 65.73589 | -127.60588 | 37011 ft | 460 kts | 144° |
| 2026-04-27 02:08 | 65.68626 | -127.50759 | 37013 ft | 459 kts | 144° |
| 2026-04-27 02:08 | 65.63706 | -127.41062 | 37014 ft | 458 kts | 144° |
| 2026-04-27 02:09 | 65.58762 | -127.31368 | 37013 ft | 456 kts | 144° |
| 2026-04-27 02:09 | 65.53818 | -127.21722 | 37016 ft | 455 kts | 144° |
| 2026-04-27 02:10 | 65.48909 | -127.12193 | 37018 ft | 455 kts | 144° |
| 2026-04-27 02:10 | 65.43989 | -127.02689 | 37023 ft | 455 kts | 145° |
| 2026-04-27 02:11 | 65.39046 | -126.93188 | 37012 ft | 455 kts | 145° |
| 2026-04-27 02:11 | 65.34088 | -126.83704 | 37000 ft | 455 kts | 144° |
| 2026-04-27 02:12 | 65.29162 | -126.74323 | 37014 ft | 456 kts | 145° |
| 2026-04-27 02:12 | 65.24176 | -126.64906 | 37008 ft | 456 kts | 146° |
| 2026-04-27 02:13 | 65.19062 | -126.55939 | 37029 ft | 456 kts | 148° |
| 2026-04-27 02:13 | 65.13933 | -126.47230 | 37024 ft | 456 kts | 148° |
| 2026-04-27 02:14 | 65.09602 | -126.39868 | 37011 ft | 456 kts | 147° |
| 2026-04-27 02:14 | 65.04478 | -126.31129 | 37025 ft | 456 kts | 147° |
| 2026-04-27 02:15 | 64.99325 | -126.22353 | 37023 ft | 456 kts | 147° |
| 2026-04-27 02:15 | 64.94154 | -126.13586 | 37025 ft | 456 kts | 147° |
| 2026-04-27 02:16 | 64.89019 | -126.04923 | 37024 ft | 456 kts | 147° |
| 2026-04-27 02:16 | 64.83847 | -125.96241 | 36999 ft | 456 kts | 147° |
| 2026-04-27 02:17 | 64.78704 | -125.87650 | 37022 ft | 456 kts | 147° |
| 2026-04-27 02:17 | 64.73523 | -125.79036 | 37024 ft | 456 kts | 147° |
| 2026-04-27 02:18 | 64.68341 | -125.70463 | 37022 ft | 456 kts | 147° |
| 2026-04-27 02:18 | 64.63188 | -125.61977 | 37025 ft | 456 kts | 147° |
| 2026-04-27 02:19 | 64.57990 | -125.53459 | 37005 ft | 456 kts | 147° |
| 2026-04-27 02:19 | 64.52825 | -125.45034 | 37017 ft | 455 kts | 147° |
| 2026-04-27 02:20 | 64.47631 | -125.36602 | 37025 ft | 455 kts | 147° |
| 2026-04-27 02:20 | 64.42458 | -125.28243 | 37030 ft | 455 kts | 147° |
| 2026-04-27 02:21 | 64.37246 | -125.19862 | 37025 ft | 456 kts | 147° |
| 2026-04-27 02:21 | 64.32060 | -125.11559 | 37024 ft | 456 kts | 147° |
| 2026-04-27 02:22 | 64.26833 | -125.03232 | 37025 ft | 456 kts | 147° |
| 2026-04-27 02:22 | 64.21634 | -124.94987 | 37029 ft | 456 kts | 147° |
| 2026-04-27 02:23 | 64.16394 | -124.86717 | 37026 ft | 457 kts | 147° |
| 2026-04-27 02:23 | 64.11180 | -124.78525 | 37027 ft | 457 kts | 148° |
| 2026-04-27 02:24 | 64.05916 | -124.70294 | 37023 ft | 458 kts | 148° |
| 2026-04-27 02:24 | 64.00680 | -124.62143 | 37023 ft | 458 kts | 148° |
| 2026-04-27 02:25 | 63.95400 | -124.53963 | 37032 ft | 458 kts | 148° |
| 2026-04-27 02:25 | 63.90121 | -124.45822 | 37030 ft | 459 kts | 148° |
| 2026-04-27 02:26 | 63.84829 | -124.37698 | 37031 ft | 459 kts | 148° |
| 2026-04-27 02:26 | 63.79558 | -124.29643 | 37034 ft | 459 kts | 148° |
| 2026-04-27 02:27 | 63.74253 | -124.21574 | 37027 ft | 459 kts | 148° |
| 2026-04-27 02:27 | 63.68969 | -124.13573 | 37025 ft | 459 kts | 148° |
| 2026-04-27 02:28 | 63.63651 | -124.05559 | 37027 ft | 459 kts | 148° |
| 2026-04-27 02:28 | 63.58341 | -123.97592 | 37031 ft | 459 kts | 148° |
| 2026-04-27 02:29 | 63.53039 | -123.89674 | 37026 ft | 459 kts | 148° |
| 2026-04-27 02:29 | 63.47716 | -123.81760 | 37031 ft | 458 kts | 149° |
| 2026-04-27 02:30 | 63.42426 | -123.73928 | 37031 ft | 458 kts | 148° |
| 2026-04-27 02:30 | 63.37111 | -123.66097 | 37039 ft | 457 kts | 149° |
| 2026-04-27 02:31 | 63.31813 | -123.58328 | 37030 ft | 458 kts | 149° |
| 2026-04-27 02:31 | 63.26489 | -123.50549 | 37025 ft | 458 kts | 149° |
| 2026-04-27 02:32 | 63.21158 | -123.42794 | 37069 ft | 457 kts | 149° |
| 2026-04-27 02:32 | 63.15972 | -123.34737 | 37068 ft | 458 kts | 146° |
| 2026-04-27 02:33 | 63.10834 | -123.26352 | 37098 ft | 458 kts | 146° |
| 2026-04-27 02:33 | 63.05711 | -123.18061 | 37087 ft | 459 kts | 146° |
| 2026-04-27 02:34 | 63.00527 | -123.09790 | 37092 ft | 459 kts | 146° |
| 2026-04-27 02:34 | 62.95364 | -123.01625 | 37101 ft | 459 kts | 146° |
| 2026-04-27 02:35 | 62.90163 | -122.93440 | 37089 ft | 459 kts | 146° |
| 2026-04-27 02:35 | 62.84997 | -122.85344 | 37101 ft | 459 kts | 146° |
| 2026-04-27 02:36 | 62.79790 | -122.77218 | 37105 ft | 459 kts | 146° |
| 2026-04-27 02:36 | 62.74616 | -122.69180 | 37089 ft | 459 kts | 146° |
| 2026-04-27 02:37 | 62.69408 | -122.61124 | 37110 ft | 458 kts | 147° |
| 2026-04-27 02:37 | 62.64228 | -122.53141 | 37112 ft | 458 kts | 146° |
| 2026-04-27 02:38 | 62.59020 | -122.45150 | 37120 ft | 458 kts | 147° |
| 2026-04-27 02:38 | 62.53834 | -122.37237 | 37124 ft | 458 kts | 147° |
| 2026-04-27 02:39 | 62.48606 | -122.29297 | 37117 ft | 458 kts | 147° |
| 2026-04-27 02:39 | 62.43415 | -122.21441 | 37133 ft | 457 kts | 147° |
| 2026-04-27 02:40 | 62.38187 | -122.13565 | 37135 ft | 457 kts | 147° |
| 2026-04-27 02:40 | 62.32996 | -122.05772 | 37138 ft | 457 kts | 147° |
| 2026-04-27 02:41 | 62.27759 | -121.97949 | 37141 ft | 458 kts | 147° |
| 2026-04-27 02:41 | 62.22514 | -121.90146 | 37136 ft | 458 kts | 147° |
| 2026-04-27 02:42 | 62.17307 | -121.82420 | 37148 ft | 458 kts | 147° |
| 2026-04-27 02:42 | 62.12043 | -121.74659 | 37146 ft | 458 kts | 147° |
| 2026-04-27 02:43 | 62.06805 | -121.66997 | 37153 ft | 459 kts | 147° |
| 2026-04-27 02:43 | 62.01527 | -121.59265 | 37149 ft | 459 kts | 147° |
| 2026-04-27 02:44 | 61.96279 | -121.51630 | 37148 ft | 460 kts | 148° |
| 2026-04-27 02:44 | 61.90974 | -121.43922 | 37158 ft | 460 kts | 147° |
| 2026-04-27 02:45 | 61.85701 | -121.36313 | 37133 ft | 461 kts | 147° |
| 2026-04-27 02:45 | 61.80385 | -121.28663 | 37135 ft | 461 kts | 148° |
| 2026-04-27 02:46 | 61.74764 | -121.22461 | 37149 ft | 458 kts | 159° |
| 2026-04-27 02:46 | 61.68828 | -121.17446 | 37126 ft | 458 kts | 159° |
| 2026-04-27 02:47 | 61.62932 | -121.12489 | 37136 ft | 459 kts | 159° |
| 2026-04-27 02:47 | 61.56997 | -121.07443 | 37142 ft | 460 kts | 159° |
| 2026-04-27 02:48 | 61.51092 | -121.02398 | 37150 ft | 460 kts | 160° |
| 2026-04-27 02:48 | 61.45149 | -120.97323 | 37160 ft | 460 kts | 159° |
| 2026-04-27 02:49 | 61.39238 | -120.92295 | 37146 ft | 460 kts | 159° |
| 2026-04-27 02:49 | 61.33305 | -120.87266 | 37153 ft | 460 kts | 159° |
| 2026-04-27 02:50 | 61.27360 | -120.82268 | 37153 ft | 460 kts | 159° |
| 2026-04-27 02:50 | 61.21451 | -120.77316 | 37153 ft | 460 kts | 160° |
| 2026-04-27 02:51 | 61.15501 | -120.72356 | 37150 ft | 460 kts | 160° |
| 2026-04-27 02:51 | 61.09583 | -120.67430 | 37149 ft | 460 kts | 159° |
| 2026-04-27 02:52 | 61.03641 | -120.62502 | 37147 ft | 460 kts | 159° |
| 2026-04-27 02:52 | 60.97695 | -120.57598 | 37153 ft | 460 kts | 159° |
| 2026-04-27 02:53 | 60.91794 | -120.52743 | 37152 ft | 459 kts | 160° |
| 2026-04-27 02:53 | 60.85846 | -120.47871 | 37127 ft | 459 kts | 159° |
| 2026-04-27 02:54 | 60.79903 | -120.43038 | 37143 ft | 459 kts | 159° |
| 2026-04-27 02:54 | 60.73985 | -120.38233 | 37142 ft | 460 kts | 160° |
| 2026-04-27 02:55 | 60.68025 | -120.33408 | 37141 ft | 460 kts | 159° |
| 2026-04-27 02:55 | 60.62089 | -120.28621 | 37147 ft | 461 kts | 160° |
| 2026-04-27 02:56 | 60.56110 | -120.23824 | 37141 ft | 461 kts | 159° |
| 2026-04-27 02:56 | 60.50123 | -120.19042 | 37149 ft | 462 kts | 159° |
| 2026-04-27 02:57 | 60.44166 | -120.14302 | 37147 ft | 463 kts | 159° |
| 2026-04-27 02:57 | 60.38150 | -120.09534 | 37151 ft | 464 kts | 160° |
| 2026-04-27 02:58 | 60.32122 | -120.04773 | 37134 ft | 465 kts | 159° |
| 2026-04-27 02:58 | 60.26127 | -120.00057 | 37131 ft | 465 kts | 159° |
| 2026-04-27 02:59 | 60.20081 | -119.95315 | 37133 ft | 466 kts | 159° |
| 2026-04-27 02:59 | 60.14033 | -119.90595 | 37130 ft | 466 kts | 159° |
| 2026-04-27 03:00 | 60.08016 | -119.85919 | 37126 ft | 466 kts | 159° |
| 2026-04-27 03:00 | 60.01957 | -119.81227 | 37124 ft | 466 kts | 159° |
| 2026-04-27 03:01 | 59.95904 | -119.76557 | 37126 ft | 465 kts | 159° |
| 2026-04-27 03:01 | 59.89889 | -119.71937 | 37124 ft | 465 kts | 159° |
| 2026-04-27 03:02 | 59.83845 | -119.67313 | 37120 ft | 464 kts | 159° |
| 2026-04-27 03:02 | 59.77808 | -119.62712 | 37123 ft | 464 kts | 159° |
| 2026-04-27 03:03 | 59.68802 | -119.55880 | 37113 ft | 463 kts | 159° |
| 2026-04-27 03:04 | 59.62770 | -119.51326 | 37115 ft | 463 kts | 159° |
| 2026-04-27 03:04 | 59.56771 | -119.46814 | 37116 ft | 464 kts | 159° |
| 2026-04-27 03:05 | 59.50729 | -119.42287 | 37120 ft | 464 kts | 159° |
| 2026-04-27 03:05 | 59.44672 | -119.37768 | 37117 ft | 465 kts | 159° |
| 2026-04-27 03:06 | 59.38651 | -119.33290 | 37131 ft | 466 kts | 159° |
| 2026-04-27 03:06 | 59.32572 | -119.28788 | 37129 ft | 467 kts | 159° |
| 2026-04-27 03:07 | 59.26523 | -119.24326 | 37134 ft | 467 kts | 159° |
| 2026-04-27 03:07 | 59.20422 | -119.19842 | 37129 ft | 468 kts | 159° |
| 2026-04-27 03:08 | 59.14317 | -119.15372 | 37129 ft | 469 kts | 159° |
| 2026-04-27 03:08 | 59.08241 | -119.10940 | 37131 ft | 469 kts | 159° |
| 2026-04-27 03:09 | 59.02109 | -119.06484 | 37131 ft | 469 kts | 159° |
| 2026-04-27 03:09 | 58.96021 | -119.02077 | 37133 ft | 470 kts | 159° |
| 2026-04-27 03:10 | 58.89887 | -118.97654 | 37138 ft | 470 kts | 159° |
| 2026-04-27 03:10 | 58.83754 | -118.93248 | 37135 ft | 469 kts | 159° |
| 2026-04-27 03:11 | 58.77659 | -118.88886 | 37137 ft | 469 kts | 159° |
| 2026-04-27 03:11 | 58.71538 | -118.84522 | 37139 ft | 469 kts | 159° |
| 2026-04-27 03:12 | 58.65419 | -118.80175 | 37128 ft | 468 kts | 159° |
| 2026-04-27 03:12 | 58.59332 | -118.75868 | 37127 ft | 468 kts | 159° |
| 2026-04-27 03:13 | 58.53214 | -118.71553 | 37135 ft | 467 kts | 159° |
| 2026-04-27 03:13 | 58.47137 | -118.67285 | 37133 ft | 467 kts | 160° |
| 2026-04-27 03:14 | 58.41025 | -118.63007 | 37127 ft | 467 kts | 160° |
| 2026-04-27 03:14 | 58.34942 | -118.58766 | 37128 ft | 467 kts | 160° |
| 2026-04-27 03:15 | 58.28830 | -118.54520 | 37128 ft | 467 kts | 160° |
| 2026-04-27 03:15 | 58.22755 | -118.50315 | 37138 ft | 467 kts | 160° |
| 2026-04-27 03:16 | 58.16634 | -118.46093 | 37134 ft | 467 kts | 160° |
| 2026-04-27 03:16 | 58.10516 | -118.41890 | 37132 ft | 467 kts | 160° |
| 2026-04-27 03:17 | 58.04430 | -118.37723 | 37127 ft | 467 kts | 160° |
| 2026-04-27 03:17 | 57.98316 | -118.33553 | 37134 ft | 467 kts | 160° |
| 2026-04-27 03:18 | 57.92230 | -118.29417 | 37133 ft | 467 kts | 160° |
| 2026-04-27 03:18 | 57.86102 | -118.25267 | 37144 ft | 467 kts | 160° |
| 2026-04-27 03:19 | 57.80004 | -118.21152 | 37139 ft | 468 kts | 160° |
| 2026-04-27 03:19 | 57.73859 | -118.17021 | 37138 ft | 468 kts | 160° |
| 2026-04-27 03:20 | 57.67714 | -118.12905 | 37148 ft | 469 kts | 160° |
| 2026-04-27 03:20 | 57.61603 | -118.08826 | 37143 ft | 469 kts | 160° |
| 2026-04-27 03:21 | 57.55448 | -118.04733 | 37135 ft | 469 kts | 160° |
| 2026-04-27 03:21 | 57.49320 | -118.00671 | 37140 ft | 470 kts | 160° |
| 2026-04-27 03:22 | 57.43140 | -117.96590 | 37152 ft | 470 kts | 160° |
| 2026-04-27 03:22 | 57.36968 | -117.92529 | 37158 ft | 471 kts | 160° |
| 2026-04-27 03:23 | 57.30823 | -117.88503 | 37155 ft | 471 kts | 160° |
| 2026-04-27 03:23 | 57.24635 | -117.84459 | 37168 ft | 471 kts | 160° |
| 2026-04-27 03:24 | 57.18489 | -117.80456 | 37167 ft | 471 kts | 160° |
| 2026-04-27 03:24 | 57.12289 | -117.76435 | 37169 ft | 471 kts | 160° |
| 2026-04-27 03:25 | 57.06089 | -117.72428 | 37177 ft | 471 kts | 159° |
| 2026-04-27 03:25 | 56.99928 | -117.68459 | 37169 ft | 472 kts | 160° |
| 2026-04-27 03:26 | 56.93719 | -117.64474 | 37169 ft | 472 kts | 160° |
| 2026-04-27 03:26 | 56.87553 | -117.60531 | 37172 ft | 472 kts | 160° |
| 2026-04-27 03:27 | 56.81339 | -117.56571 | 37178 ft | 472 kts | 160° |
| 2026-04-27 03:27 | 56.75124 | -117.52623 | 37186 ft | 473 kts | 159° |
| 2026-04-27 03:28 | 56.68909 | -117.48690 | 37188 ft | 473 kts | 159° |
| 2026-04-27 03:28 | 56.62727 | -117.44791 | 37190 ft | 474 kts | 159° |
| 2026-04-27 03:29 | 56.56481 | -117.40866 | 37191 ft | 474 kts | 159° |
| 2026-04-27 03:29 | 56.50271 | -117.36978 | 37195 ft | 475 kts | 159° |
| 2026-04-27 03:30 | 56.45068 | -117.33729 | 37197 ft | 475 kts | 159° |
| 2026-04-27 03:30 | 56.38810 | -117.29835 | 37202 ft | 476 kts | 159° |
| 2026-04-27 03:31 | 56.32532 | -117.25941 | 37204 ft | 476 kts | 159° |
| 2026-04-27 03:31 | 56.26292 | -117.22086 | 37211 ft | 477 kts | 159° |
| 2026-04-27 03:32 | 56.20004 | -117.18214 | 37203 ft | 477 kts | 159° |
| 2026-04-27 03:32 | 56.13707 | -117.14350 | 37201 ft | 478 kts | 159° |
| 2026-04-27 03:33 | 56.07446 | -117.10521 | 37197 ft | 478 kts | 159° |
| 2026-04-27 03:33 | 56.01143 | -117.06680 | 37201 ft | 478 kts | 159° |
| 2026-04-27 03:34 | 55.94878 | -117.02875 | 37194 ft | 478 kts | 159° |
| 2026-04-27 03:34 | 55.88572 | -116.99057 | 37197 ft | 478 kts | 159° |
| 2026-04-27 03:35 | 55.82253 | -116.95246 | 37196 ft | 478 kts | 159° |
| 2026-04-27 03:35 | 55.75987 | -116.91479 | 37193 ft | 478 kts | 159° |
| 2026-04-27 03:36 | 55.69674 | -116.87697 | 37190 ft | 478 kts | 159° |
| 2026-04-27 03:36 | 55.63360 | -116.83927 | 37191 ft | 478 kts | 159° |
| 2026-04-27 03:37 | 55.57093 | -116.80198 | 37189 ft | 478 kts | 159° |
| 2026-04-27 03:37 | 55.50776 | -116.76452 | 37209 ft | 478 kts | 159° |
| 2026-04-27 03:38 | 55.44491 | -116.72737 | 37198 ft | 478 kts | 159° |
| 2026-04-27 03:38 | 55.38171 | -116.69014 | 37187 ft | 479 kts | 159° |
| 2026-04-27 03:39 | 55.31851 | -116.65304 | 37187 ft | 479 kts | 159° |
| 2026-04-27 03:39 | 55.25510 | -116.61594 | 37209 ft | 479 kts | 159° |
| 2026-04-27 03:40 | 55.19220 | -116.57926 | 37193 ft | 480 kts | 159° |
| 2026-04-27 03:40 | 55.12870 | -116.54235 | 37192 ft | 480 kts | 159° |
| 2026-04-27 03:41 | 55.06515 | -116.50554 | 37178 ft | 481 kts | 159° |
| 2026-04-27 03:41 | 55.00200 | -116.46909 | 37187 ft | 481 kts | 159° |
| 2026-04-27 03:42 | 54.93829 | -116.43243 | 37180 ft | 481 kts | 159° |
| 2026-04-27 03:42 | 54.87488 | -116.39607 | 37173 ft | 481 kts | 159° |
| 2026-04-27 03:43 | 54.81118 | -116.35966 | 37174 ft | 482 kts | 159° |
| 2026-04-27 03:43 | 54.74735 | -116.32330 | 37168 ft | 481 kts | 159° |
| 2026-04-27 03:44 | 54.68412 | -116.28740 | 37174 ft | 481 kts | 159° |
| 2026-04-27 03:44 | 54.62033 | -116.25130 | 37176 ft | 481 kts | 159° |
| 2026-04-27 03:45 | 54.55650 | -116.21529 | 37170 ft | 482 kts | 159° |
| 2026-04-27 03:45 | 54.49290 | -116.17954 | 37187 ft | 482 kts | 159° |
| 2026-04-27 03:46 | 54.42947 | -116.14400 | 37173 ft | 482 kts | 159° |
| 2026-04-27 03:46 | 54.36565 | -116.10835 | 37148 ft | 482 kts | 159° |
| 2026-04-27 03:47 | 54.30211 | -116.07298 | 37122 ft | 482 kts | 159° |
| 2026-04-27 03:47 | 54.23815 | -116.03749 | 37119 ft | 482 kts | 159° |
| 2026-04-27 03:48 | 54.17464 | -116.00236 | 37079 ft | 482 kts | 160° |
| 2026-04-27 03:48 | 54.11069 | -115.96710 | 37183 ft | 482 kts | 160° |
| 2026-04-27 03:49 | 54.04709 | -115.93216 | 37176 ft | 482 kts | 160° |
| 2026-04-27 03:49 | 53.98298 | -115.89704 | 37193 ft | 482 kts | 160° |
| 2026-04-27 03:50 | 53.91939 | -115.86232 | 37180 ft | 482 kts | 160° |
| 2026-04-27 03:50 | 53.85539 | -115.82749 | 37173 ft | 482 kts | 160° |
| 2026-04-27 03:51 | 53.79190 | -115.79305 | 37172 ft | 482 kts | 160° |
| 2026-04-27 03:51 | 53.72797 | -115.75848 | 37185 ft | 481 kts | 160° |
| 2026-04-27 03:52 | 53.66443 | -115.72423 | 37174 ft | 481 kts | 160° |
| 2026-04-27 03:52 | 53.60091 | -115.69010 | 37170 ft | 481 kts | 160° |
| 2026-04-27 03:53 | 53.53722 | -115.65598 | 37167 ft | 481 kts | 160° |
| 2026-04-27 03:53 | 53.47335 | -115.62188 | 37172 ft | 481 kts | 160° |
| 2026-04-27 03:54 | 53.40952 | -115.58790 | 37167 ft | 481 kts | 160° |
| 2026-04-27 03:54 | 53.34600 | -115.55420 | 37170 ft | 481 kts | 160° |
| 2026-04-27 03:55 | 53.28206 | -115.52038 | 37168 ft | 481 kts | 160° |
| 2026-04-27 03:55 | 53.21850 | -115.48687 | 37164 ft | 482 kts | 160° |
| 2026-04-27 03:56 | 53.15438 | -115.45317 | 37163 ft | 482 kts | 160° |
| 2026-04-27 03:56 | 53.09066 | -115.41978 | 37165 ft | 483 kts | 161° |
| 2026-04-27 03:57 | 53.02636 | -115.38619 | 37168 ft | 483 kts | 161° |
| 2026-04-27 03:57 | 52.96253 | -115.35295 | 37165 ft | 483 kts | 161° |
| 2026-04-27 03:58 | 52.89817 | -115.31954 | 37159 ft | 483 kts | 161° |
| 2026-04-27 03:58 | 52.83427 | -115.28647 | 37165 ft | 483 kts | 161° |
| 2026-04-27 03:59 | 52.77002 | -115.25333 | 37166 ft | 483 kts | 161° |
| 2026-04-27 03:59 | 52.70608 | -115.22044 | 37147 ft | 484 kts | 161° |
| 2026-04-27 04:00 | 52.64171 | -115.18743 | 37155 ft | 483 kts | 161° |
| 2026-04-27 04:00 | 52.57738 | -115.15456 | 37149 ft | 483 kts | 161° |
| 2026-04-27 04:01 | 52.51333 | -115.12190 | 36683 ft | 489 kts | 161° |
| 2026-04-27 04:01 | 52.48089 | -115.10541 | 36147 ft | 487 kts | 161° |
| 2026-04-27 04:01 | 52.44844 | -115.08894 | 35504 ft | 487 kts | 161° |
| 2026-04-27 04:01 | 52.41602 | -115.07251 | 34840 ft | 488 kts | 161° |
| 2026-04-27 04:02 | 52.38349 | -115.05605 | 34140 ft | 489 kts | 161° |
| 2026-04-27 04:02 | 52.35135 | -115.03981 | 33338 ft | 490 kts | 161° |
| 2026-04-27 04:02 | 52.31877 | -115.02337 | 32576 ft | 488 kts | 161° |
| 2026-04-27 04:02 | 52.28625 | -115.00699 | 31829 ft | 487 kts | 162° |
| 2026-04-27 04:03 | 52.25381 | -114.99068 | 31074 ft | 486 kts | 162° |
| 2026-04-27 04:03 | 52.22146 | -114.97443 | 30301 ft | 486 kts | 162° |
| 2026-04-27 04:03 | 52.18913 | -114.95821 | 29360 ft | 485 kts | 162° |
| 2026-04-27 04:03 | 52.15723 | -114.94224 | 28490 ft | 484 kts | 162° |
| 2026-04-27 04:04 | 52.12503 | -114.92614 | 27735 ft | 481 kts | 163° |
| 2026-04-27 04:04 | 52.09325 | -114.91027 | 27114 ft | 474 kts | 163° |
| 2026-04-27 04:04 | 52.06184 | -114.89461 | 26498 ft | 468 kts | 163° |
| 2026-04-27 04:04 | 52.03114 | -114.87932 | 25896 ft | 463 kts | 163° |
| 2026-04-27 04:05 | 52.00045 | -114.86407 | 25297 ft | 458 kts | 163° |
| 2026-04-27 04:05 | 51.97007 | -114.84899 | 24725 ft | 454 kts | 163° |
| 2026-04-27 04:05 | 51.93989 | -114.83404 | 24142 ft | 450 kts | 164° |
| 2026-04-27 04:05 | 51.91048 | -114.81948 | 23533 ft | 446 kts | 164° |
| 2026-04-27 04:06 | 51.88087 | -114.80485 | 22879 ft | 442 kts | 164° |
| 2026-04-27 04:06 | 51.85161 | -114.79041 | 22288 ft | 437 kts | 164° |
| 2026-04-27 04:06 | 51.82264 | -114.77613 | 21696 ft | 432 kts | 164° |
| 2026-04-27 04:07 | 51.76566 | -114.74809 | 20563 ft | 423 kts | 164° |
| 2026-04-27 04:07 | 51.73755 | -114.73428 | 20004 ft | 419 kts | 164° |
| 2026-04-27 04:07 | 51.71005 | -114.72081 | 19457 ft | 416 kts | 164° |
| 2026-04-27 04:07 | 51.68285 | -114.70541 | 18904 ft | 413 kts | 153° |
| 2026-04-27 04:08 | 51.65903 | -114.67971 | 18375 ft | 409 kts | 143° |
| 2026-04-27 04:08 | 51.63608 | -114.65266 | 17692 ft | 408 kts | 144° |
| 2026-04-27 04:08 | 51.61301 | -114.62635 | 17103 ft | 404 kts | 145° |
| 2026-04-27 04:08 | 51.59027 | -114.60099 | 16571 ft | 399 kts | 146° |
| 2026-04-27 04:09 | 51.56757 | -114.57564 | 16025 ft | 396 kts | 145° |
| 2026-04-27 04:09 | 51.54527 | -114.54969 | 15491 ft | 392 kts | 144° |
| 2026-04-27 04:09 | 51.52343 | -114.52389 | 14967 ft | 388 kts | 144° |
| 2026-04-27 04:09 | 51.50194 | -114.49863 | 14458 ft | 385 kts | 144° |
| 2026-04-27 04:10 | 51.48035 | -114.47337 | 13925 ft | 382 kts | 144° |
| 2026-04-27 04:10 | 51.45991 | -114.44629 | 13331 ft | 379 kts | 137° |
| 2026-04-27 04:10 | 51.44109 | -114.41674 | 12784 ft | 376 kts | 134° |
| 2026-04-27 04:10 | 51.42286 | -114.38689 | 12271 ft | 373 kts | 134° |
| 2026-04-27 04:11 | 51.40498 | -114.35774 | 11746 ft | 371 kts | 134° |
| 2026-04-27 04:11 | 51.38675 | -114.32851 | 11230 ft | 369 kts | 135° |
| 2026-04-27 04:11 | 51.36872 | -114.30004 | 11075 ft | 357 kts | 135° |
| 2026-04-27 04:11 | 51.35118 | -114.27258 | 10904 ft | 347 kts | 135° |
| 2026-04-27 04:12 | 51.33415 | -114.24602 | 10752 ft | 337 kts | 135° |
| 2026-04-27 04:12 | 51.31778 | -114.22057 | 10539 ft | 328 kts | 135° |
| 2026-04-27 04:12 | 51.30164 | -114.19551 | 10397 ft | 319 kts | 135° |
| 2026-04-27 04:12 | 51.28469 | -114.17328 | 10226 ft | 312 kts | 153° |
| 2026-04-27 04:13 | 51.26439 | -114.16320 | 10112 ft | 301 kts | 174° |
| 2026-04-27 04:13 | 51.24379 | -114.16178 | 10004 ft | 291 kts | 182° |
| 2026-04-27 04:13 | 51.22363 | -114.16216 | 9632 ft | 292 kts | 183° |
| 2026-04-27 04:13 | 51.20370 | -114.16270 | 9334 ft | 287 kts | 182° |
| 2026-04-27 04:14 | 51.18398 | -114.16309 | 9052 ft | 281 kts | 182° |
| 2026-04-27 04:14 | 51.16446 | -114.16333 | 8779 ft | 279 kts | 182° |
| 2026-04-27 04:14 | 51.14501 | -114.16346 | 8514 ft | 278 kts | 181° |
| 2026-04-27 04:14 | 51.12614 | -114.16352 | 8397 ft | 271 kts | 181° |
| 2026-04-27 04:15 | 51.10748 | -114.16353 | 8281 ft | 264 kts | 181° |
| 2026-04-27 04:15 | 51.08931 | -114.16352 | 8166 ft | 258 kts | 181° |
| 2026-04-27 04:15 | 51.07155 | -114.16351 | 8065 ft | 252 kts | 181° |
| 2026-04-27 04:15 | 51.05424 | -114.16349 | 7960 ft | 245 kts | 181° |
| 2026-04-27 04:16 | 51.03766 | -114.16346 | 7842 ft | 237 kts | 181° |
| 2026-04-27 04:16 | 51.02130 | -114.16343 | 7756 ft | 233 kts | 181° |
| 2026-04-27 04:16 | 51.00515 | -114.16340 | 7657 ft | 231 kts | 181° |
| 2026-04-27 04:16 | 50.98904 | -114.16337 | 7558 ft | 231 kts | 181° |
| 2026-04-27 04:17 | 50.97293 | -114.16333 | 7458 ft | 231 kts | 181° |
| 2026-04-27 04:17 | 50.95703 | -114.16330 | 7359 ft | 231 kts | 181° |
| 2026-04-27 04:17 | 50.94090 | -114.16325 | 7264 ft | 231 kts | 180° |
| 2026-04-27 04:17 | 50.92545 | -114.15702 | 7116 ft | 233 kts | 146° |
| 2026-04-27 04:18 | 50.91530 | -114.13797 | 7039 ft | 224 kts | 111° |
| 2026-04-27 04:18 | 50.91242 | -114.11481 | 6951 ft | 211 kts | 92° |
| 2026-04-27 04:18 | 50.91232 | -114.09210 | 6849 ft | 202 kts | 90° |
| 2026-04-27 04:18 | 50.91245 | -114.07023 | 6740 ft | 193 kts | 90° |
| 2026-04-27 04:19 | 50.91270 | -114.04946 | 6630 ft | 188 kts | 84° |
| 2026-04-27 04:19 | 50.91787 | -114.03069 | 6511 ft | 187 kts | 44° |
| 2026-04-27 04:19 | 50.92911 | -114.02193 | 6358 ft | 185 kts | 6° |
| 2026-04-27 04:19 | 50.94194 | -114.02105 | 6205 ft | 185 kts | 359° |
| 2026-04-27 04:20 | 50.95470 | -114.02114 | 6003 ft | 181 kts | 359° |
| 2026-04-27 04:20 | 50.96720 | -114.02124 | 5843 ft | 175 kts | 359° |
| 2026-04-27 04:20 | 50.97937 | -114.02131 | 5677 ft | 174 kts | 360° |
| 2026-04-27 04:20 | 50.99117 | -114.02135 | 5499 ft | 170 kts | 0° |
| 2026-04-27 04:21 | 51.00301 | -114.02137 | 5336 ft | 171 kts | 0° |
| 2026-04-27 04:21 | 51.01503 | -114.02138 | 5157 ft | 172 kts | 0° |
| 2026-04-27 04:21 | 51.02674 | -114.02141 | 4943 ft | 166 kts | 0° |
| 2026-04-27 04:21 | 51.03800 | -114.02142 | 4701 ft | 161 kts | 1° |
| 2026-04-27 04:22 | 51.04909 | -114.02143 | 4456 ft | 157 kts | 1° |
| 2026-04-27 04:22 | 51.06009 | -114.02146 | 4295 ft | 160 kts | 1° |
| 2026-04-27 04:22 | 51.07136 | -114.02136 | 4079 ft | 162 kts | 1° |
| 2026-04-27 04:22 | 51.08242 | -114.02144 | 3876 ft | 161 kts | 0° |
| 2026-04-27 04:23 | 51.09371 | -114.02146 | 3702 ft | 165 kts | 1° |
| 2026-04-27 04:23 | 51.10511 | -114.02141 | 3557 ft | 154 kts | 0° |
| 2026-04-27 04:23 | 51.11473 | -114.02137 | 3556 ft | 120 kts | 360° |
| 2026-04-27 04:23 | 51.12193 | -114.02135 | 3561 ft | 86 kts | 0° |
| 2026-04-27 04:24 | 51.12613 | -114.02125 | 3556 ft | 28 kts | 10° |
| 2026-04-27 04:24 | 51.12785 | -114.02031 | 3557 ft | 22 kts | 30° |
| 2026-04-27 04:24 | 51.12873 | -114.01948 | 3555 ft | 11 kts | 42° |
| 2026-04-27 04:24 | 51.12895 | -114.01833 | 3558 ft | 11 kts | 89° |
| 2026-04-27 04:25 | 51.12895 | -114.01706 | 3558 ft | 12 kts | 90° |
| 2026-04-27 04:25 | 51.12895 | -114.01562 | 3558 ft | 12 kts | 90° |
| 2026-04-27 04:25 | 51.12856 | -114.01444 | 3558 ft | 12 kts | 131° |
| 2026-04-27 04:25 | 51.12801 | -114.01346 | 3558 ft | 11 kts | 131° |
| 2026-04-27 04:26 | 51.12777 | -114.01238 | 3558 ft | 11 kts | 77° |
| 2026-04-27 04:26 | 51.12822 | -114.01158 | 3558 ft | 7 kts | 23° |
| 2026-04-27 04:26 | 51.12866 | -114.01174 | 3558 ft | 6 kts | 339° |
| 2026-04-27 04:26 | 51.12885 | -114.01185 | 3558 ft | 0 kts | 340° |